createdAt,value
2019-02-26T00:00:10.282Z,99.90
2019-02-26T00:05:08.017Z,99.90
2019-02-26T00:10:04.610Z,99.90
2019-02-26T00:15:02.579Z,99.90
2019-02-26T00:19:58.576Z,99.90
2019-02-26T00:24:54.534Z,99.90
2019-02-26T00:29:51.385Z,99.90
2019-02-26T00:34:47.924Z,99.90
2019-02-26T00:39:45.191Z,99.90
2019-02-26T00:44:42.129Z,99.90
2019-02-26T00:49:37.865Z,99.90
2019-02-26T00:54:34.458Z,99.90
2019-02-26T00:59:31.247Z,99.90
2019-02-26T01:04:28.044Z,99.90
2019-02-26T01:09:25.192Z,99.90
2019-02-26T01:14:23.044Z,99.90
2019-02-26T01:19:19.910Z,99.90
2019-02-26T01:24:15.674Z,99.90
2019-02-26T01:29:16.051Z,99.90
2019-02-26T01:34:11.993Z,99.90
2019-02-26T01:39:11.506Z,99.90
2019-02-26T01:44:08.741Z,99.90
2019-02-26T01:49:06.259Z,99.90
2019-02-26T01:54:05.702Z,99.90
2019-02-26T01:59:07.464Z,99.90
2019-02-26T02:04:03.396Z,99.90
2019-02-26T02:09:01.053Z,99.90
2019-02-26T02:14:01.891Z,99.90
2019-02-26T02:18:57.566Z,99.90
2019-02-26T02:23:53.247Z,99.90
2019-02-26T02:28:49.111Z,99.90
2019-02-26T02:33:45.088Z,99.90
2019-02-26T02:38:40.821Z,99.90
2019-02-26T02:43:36.624Z,99.90
2019-02-26T02:48:32.445Z,99.90
2019-02-26T02:53:30.197Z,99.90
2019-02-26T02:58:26.904Z,99.90
2019-02-26T03:03:22.752Z,99.90
2019-02-26T03:08:21.980Z,99.90
2019-02-26T03:13:16.994Z,99.90
2019-02-26T03:18:14.909Z,99.90
2019-02-26T03:23:15.104Z,99.90
2019-02-26T03:28:09.395Z,99.90
2019-02-26T03:33:05.258Z,99.90
2019-02-26T03:38:03.478Z,99.90
2019-02-26T03:42:58.597Z,99.90
2019-02-26T03:47:55.404Z,99.90
2019-02-26T03:52:52.011Z,99.90
2019-02-26T03:57:51.103Z,99.90
2019-02-26T04:02:50.683Z,99.90
2019-02-26T04:07:45.527Z,99.90
2019-02-26T04:12:42.335Z,99.90
2019-02-26T04:17:40.173Z,99.90
2019-02-26T04:22:40.219Z,99.90
2019-02-26T04:28:10.555Z,99.90
2019-02-26T04:33:49.117Z,99.90
2019-02-26T04:39:14.377Z,99.90
2019-02-26T04:45:08.671Z,99.90
2019-02-26T04:50:06.193Z,99.90
2019-02-26T04:55:00.704Z,99.90
2019-02-26T04:59:59.124Z,99.90
2019-02-26T05:04:53.864Z,99.90
2019-02-26T05:09:51.200Z,99.90
2019-02-26T05:14:47.125Z,99.90
2019-02-26T05:19:46.723Z,99.90
2019-02-26T05:24:44.216Z,99.90
2019-02-26T05:29:43.472Z,99.90
2019-02-26T05:34:42.789Z,99.90
2019-02-26T05:39:40.662Z,99.90
2019-02-26T05:44:37.083Z,99.90
2019-02-26T05:49:35.372Z,99.90
2019-02-26T05:54:31.799Z,99.90
2019-02-26T05:59:27.568Z,99.90
2019-02-26T06:04:24.362Z,99.90
2019-02-26T06:09:22.470Z,99.90
2019-02-26T06:14:16.653Z,99.90
2019-02-26T06:19:13.420Z,99.90
2019-02-26T06:24:10.064Z,99.90
2019-02-26T06:29:08.057Z,99.90
2019-02-26T06:34:05.839Z,99.90
2019-02-26T06:39:03.557Z,99.90
2019-02-26T06:44:00.418Z,99.90
2019-02-26T06:48:56.416Z,99.90
2019-02-26T06:53:54.173Z,99.90
2019-02-26T06:58:49.930Z,99.90
2019-02-26T07:03:45.934Z,99.90
2019-02-26T07:08:42.185Z,99.90
2019-02-26T07:13:41.047Z,99.90
2019-02-26T07:18:38.034Z,99.90
2019-02-26T07:23:35.092Z,99.90
2019-02-26T07:28:31.653Z,99.10
2019-02-26T07:33:29.857Z,96.80
2019-02-26T07:38:25.781Z,95.10
2019-02-26T07:43:22.661Z,89.50
2019-02-26T07:48:21.101Z,78.00
2019-02-26T07:53:17.991Z,61.80
2019-02-26T07:58:15.475Z,53.30
2019-02-26T08:03:14.031Z,46.40
2019-02-26T08:08:11.909Z,43.00
2019-02-26T08:13:08.017Z,41.20
2019-02-26T08:18:05.336Z,40.10
2019-02-26T08:23:01.431Z,40.00
2019-02-26T08:28:01.036Z,39.70
2019-02-26T08:32:58.443Z,39.20
2019-02-26T08:37:53.851Z,39.80
2019-02-26T08:42:50.050Z,39.30
2019-02-26T08:47:46.140Z,38.30
2019-02-26T08:52:44.248Z,38.70
2019-02-26T08:57:39.747Z,38.40
2019-02-26T09:02:35.461Z,38.00
2019-02-26T09:07:32.663Z,38.70
2019-02-26T09:12:28.487Z,38.00
2019-02-26T09:17:29.907Z,38.30
2019-02-26T09:22:26.628Z,37.40
2019-02-26T09:27:22.278Z,37.50
2019-02-26T09:32:18.387Z,36.10
2019-02-26T09:37:14.751Z,35.80
2019-02-26T09:42:10.672Z,35.80
2019-02-26T09:47:07.711Z,35.30
2019-02-26T09:52:04.425Z,34.50
2019-02-26T09:57:02.331Z,33.20
2019-02-26T10:01:58.952Z,32.40
2019-02-26T10:06:57.940Z,32.40
2019-02-26T10:11:53.890Z,30.70
2019-02-26T10:16:51.864Z,30.00
2019-02-26T10:21:47.197Z,29.10
2019-02-26T10:26:44.926Z,28.50
2019-02-26T10:31:41.259Z,27.10
2019-02-26T10:36:40.823Z,26.20
2019-02-26T10:41:36.750Z,26.60
2019-02-26T10:46:35.022Z,25.20
2019-02-26T10:51:32.018Z,25.40
2019-02-26T10:56:28.715Z,24.60
2019-02-26T11:01:27.592Z,23.70
2019-02-26T11:06:23.677Z,23.10
2019-02-26T11:11:19.370Z,22.80
2019-02-26T11:16:22.611Z,21.70
2019-02-26T11:21:14.908Z,22.00
2019-02-26T11:26:13.177Z,21.50
2019-02-26T11:31:09.452Z,20.60
2019-02-26T11:36:08.214Z,20.50
2019-02-26T11:41:03.574Z,20.40
2019-02-26T11:46:01.491Z,20.70
2019-02-26T11:51:00.838Z,18.90
2019-02-26T11:55:56.929Z,17.60
2019-02-26T12:00:57.175Z,17.30
2019-02-26T12:05:54.213Z,17.40
2019-02-26T12:10:52.172Z,16.70
2019-02-26T12:15:47.445Z,16.30
2019-02-26T12:20:45.948Z,16.10
2019-02-26T12:25:40.837Z,15.70
2019-02-26T12:30:37.615Z,15.20
2019-02-26T12:35:40.441Z,15.20
2019-02-26T12:40:37.931Z,15.10
2019-02-26T12:45:35.109Z,14.70
2019-02-26T12:50:32.796Z,15.10
2019-02-26T12:55:31.677Z,15.60
2019-02-26T13:00:26.249Z,15.80
2019-02-26T13:05:23.142Z,16.10
2019-02-26T13:10:21.255Z,16.50
2019-02-26T13:15:19.382Z,16.40
2019-02-26T13:20:20.064Z,16.40
2019-02-26T13:25:17.778Z,16.70
2019-02-26T13:30:17.454Z,16.40
2019-02-26T13:35:14.672Z,16.10
2019-02-26T13:40:13.491Z,15.80
2019-02-26T13:45:15.257Z,15.80
2019-02-26T13:50:13.592Z,16.10
2019-02-26T13:55:10.984Z,16.30
2019-02-26T14:00:07.375Z,16.40
2019-02-26T14:05:05.669Z,16.80
2019-02-26T14:10:01.766Z,16.30
2019-02-26T14:14:58.240Z,15.60
2019-02-26T14:19:54.189Z,15.20
2019-02-26T14:24:50.164Z,15.60
2019-02-26T14:29:46.045Z,15.80
2019-02-26T14:34:41.923Z,15.50
2019-02-26T14:39:37.912Z,15.80
2019-02-26T14:44:35.173Z,16.70
2019-02-26T14:49:31.188Z,16.80
2019-02-26T14:54:26.937Z,16.60
2019-02-26T14:59:22.893Z,17.30
2019-02-26T15:04:18.693Z,17.60
2019-02-26T15:09:14.629Z,18.50
2019-02-26T15:14:10.504Z,19.00
2019-02-26T15:19:10.355Z,19.70
2019-02-26T15:24:07.649Z,19.60
2019-02-26T15:29:07.325Z,19.80
2019-02-26T15:34:03.105Z,20.20
2019-02-26T15:39:01.089Z,20.30
2019-02-26T15:43:58.287Z,20.40
2019-02-26T15:48:56.918Z,20.50
2019-02-26T15:53:55.188Z,20.40
2019-02-26T15:59:04.578Z,20.90
2019-02-26T16:03:59.986Z,21.10
2019-02-26T16:08:55.976Z,21.30
2019-02-26T16:13:51.888Z,21.70
2019-02-26T16:18:47.722Z,21.90
2019-02-26T16:23:43.559Z,21.90
2019-02-26T16:28:40.446Z,22.00
2019-02-26T16:33:37.779Z,22.10
2019-02-26T16:38:33.985Z,22.10
2019-02-26T16:43:29.874Z,22.50
2019-02-26T16:48:25.716Z,22.50
2019-02-26T16:53:21.533Z,22.90
2019-02-26T16:58:17.832Z,23.20
2019-02-26T17:03:15.413Z,23.10
2019-02-26T17:08:11.343Z,23.20
2019-02-26T17:13:08.497Z,23.20
2019-02-26T17:18:09.579Z,23.40
2019-02-26T17:23:07.476Z,23.70
2019-02-26T17:28:06.353Z,24.50
2019-02-26T17:33:04.975Z,24.20
2019-02-26T17:38:00.848Z,23.70
2019-02-26T17:42:56.839Z,23.80
2019-02-26T17:47:56.551Z,23.90
2019-02-26T17:52:50.492Z,24.40
2019-02-26T17:57:47.461Z,25.00
2019-02-26T18:02:44.345Z,25.50
2019-02-26T18:07:42.239Z,26.20
2019-02-26T18:12:39.952Z,26.80
2019-02-26T18:17:37.087Z,27.60
2019-02-26T18:22:32.950Z,28.10
2019-02-26T18:27:30.580Z,28.50
2019-02-26T18:32:27.043Z,29.00
2019-02-26T18:37:23.077Z,29.40
2019-02-26T18:42:18.877Z,29.90
2019-02-26T18:47:15.927Z,30.60
2019-02-26T18:52:12.287Z,30.80
2019-02-26T18:57:11.287Z,30.70
2019-02-26T19:02:06.127Z,31.10
2019-02-26T19:07:06.664Z,31.00
2019-02-26T19:11:59.654Z,31.60
2019-02-26T19:16:56.805Z,31.00
2019-02-26T19:21:54.188Z,31.40
2019-02-26T19:26:50.317Z,31.40
2019-02-26T19:31:46.588Z,31.10
2019-02-26T19:36:45.805Z,30.90
2019-02-26T19:41:45.262Z,31.00
2019-02-26T19:46:41.673Z,31.20
2019-02-26T19:51:37.868Z,31.40
2019-02-26T19:56:33.781Z,31.50
2019-02-26T20:01:29.748Z,31.70
2019-02-26T20:06:26.884Z,32.20
2019-02-26T20:11:23.354Z,32.70
2019-02-26T20:16:20.657Z,33.30
2019-02-26T20:21:16.891Z,33.90
2019-02-26T20:26:17.455Z,34.50
2019-02-26T20:31:13.318Z,34.80
2019-02-26T20:36:09.357Z,35.00
2019-02-26T20:41:09.473Z,35.40
2019-02-26T20:46:05.734Z,35.60
2019-02-26T20:51:01.674Z,35.60
2019-02-26T20:55:58.267Z,36.00
2019-02-26T21:00:54.128Z,36.30
2019-02-26T21:05:50.132Z,36.50
2019-02-26T21:10:48.745Z,36.60
2019-02-26T21:15:47.470Z,36.90
2019-02-26T21:20:43.795Z,37.10
2019-02-26T21:25:43.896Z,37.30
2019-02-26T21:30:39.049Z,37.10
2019-02-26T21:35:35.017Z,37.20
2019-02-26T21:40:31.083Z,37.20
2019-02-26T21:45:27.061Z,37.30
2019-02-26T21:50:23.036Z,37.30
2019-02-26T21:55:19.449Z,37.50
2019-02-26T22:00:17.401Z,37.70
2019-02-26T22:05:13.147Z,37.50
2019-02-26T22:10:10.452Z,37.30
2019-02-26T22:15:10.218Z,37.60
2019-02-26T22:20:05.385Z,37.80
2019-02-26T22:25:09.565Z,38.90
2019-02-26T22:30:01.502Z,38.00
2019-02-26T22:34:58.154Z,38.40
2019-02-26T22:39:55.847Z,39.20
2019-02-26T22:44:54.660Z,40.30
2019-02-26T22:49:53.806Z,41.70
2019-02-26T22:54:47.811Z,42.70
2019-02-26T22:59:43.668Z,44.20
2019-02-26T23:04:40.637Z,44.70
2019-02-26T23:09:37.611Z,45.30
2019-02-26T23:14:35.894Z,46.10
2019-02-26T23:19:36.443Z,46.60
2019-02-26T23:24:29.888Z,47.20
2019-02-26T23:29:28.116Z,47.80
2019-02-26T23:34:23.766Z,48.10
2019-02-26T23:39:20.193Z,48.40
2019-02-26T23:44:18.556Z,48.90
2019-02-26T23:49:14.933Z,48.30
2019-02-26T23:54:10.865Z,48.00
2019-02-26T23:59:06.766Z,47.70
